sensor_id;sensor_type;location;lat;lon;timestamp;temperature;humidity
17887;DHT22;9069;52.044;7.472;2022-12-11T00:00:23;4.70;99.50
17887;DHT22;9069;52.044;7.472;2022-12-11T00:02:50;4.70;99.50
17887;DHT22;9069;52.044;7.472;2022-12-11T00:05:17;4.70;99.60
17887;DHT22;9069;52.044;7.472;2022-12-11T00:07:43;4.70;99.60
17887;DHT22;9069;52.044;7.472;2022-12-11T00:10:10;4.70;99.50
17887;DHT22;9069;52.044;7.472;2022-12-11T00:12:37;4.70;99.50
17887;DHT22;9069;52.044;7.472;2022-12-11T00:15:04;4.70;99.50
17887;DHT22;9069;52.044;7.472;2022-12-11T00:17:30;4.70;99.50
17887;DHT22;9069;52.044;7.472;2022-12-11T00:19:57;4.70;99.50
17887;DHT22;9069;52.044;7.472;2022-12-11T00:22:24;4.70;99.50
17887;DHT22;9069;52.044;7.472;2022-12-11T00:24:50;4.70;99.50
17887;DHT22;9069;52.044;7.472;2022-12-11T00:27:17;4.70;99.40
17887;DHT22;9069;52.044;7.472;2022-12-11T00:29:44;4.70;99.50
17887;DHT22;9069;52.044;7.472;2022-12-11T00:32:10;4.60;99.50
17887;DHT22;9069;52.044;7.472;2022-12-11T00:34:37;4.60;99.40
17887;DHT22;9069;52.044;7.472;2022-12-11T00:37:05;4.60;99.40
17887;DHT22;9069;52.044;7.472;2022-12-11T00:39:32;4.60;99.40
17887;DHT22;9069;52.044;7.472;2022-12-11T00:41:59;4.60;99.40
17887;DHT22;9069;52.044;7.472;2022-12-11T00:44:25;4.60;99.40
17887;DHT22;9069;52.044;7.472;2022-12-11T00:46:52;4.60;99.40
17887;DHT22;9069;52.044;7.472;2022-12-11T00:49:19;4.60;99.40
17887;DHT22;9069;52.044;7.472;2022-12-11T00:51:45;4.50;99.30
17887;DHT22;9069;52.044;7.472;2022-12-11T00:54:12;4.50;99.30
17887;DHT22;9069;52.044;7.472;2022-12-11T00:56:39;4.50;99.30
17887;DHT22;9069;52.044;7.472;2022-12-11T00:59:06;4.50;99.30
17887;DHT22;9069;52.044;7.472;2022-12-11T01:01:32;4.50;99.30
17887;DHT22;9069;52.044;7.472;2022-12-11T01:04:00;4.50;99.30
17887;DHT22;9069;52.044;7.472;2022-12-11T01:06:27;4.40;99.30
17887;DHT22;9069;52.044;7.472;2022-12-11T01:08:54;4.40;99.30
17887;DHT22;9069;52.044;7.472;2022-12-11T01:11:41;4.40;99.30
17887;DHT22;9069;52.044;7.472;2022-12-11T01:14:09;4.40;99.30
17887;DHT22;9069;52.044;7.472;2022-12-11T01:16:36;4.40;99.30
17887;DHT22;9069;52.044;7.472;2022-12-11T01:19:03;4.40;99.20
17887;DHT22;9069;52.044;7.472;2022-12-11T01:21:30;4.30;99.30
17887;DHT22;9069;52.044;7.472;2022-12-11T01:23:56;4.30;99.20
17887;DHT22;9069;52.044;7.472;2022-12-11T01:26:23;4.30;99.30
17887;DHT22;9069;52.044;7.472;2022-12-11T01:28:50;4.30;99.30
17887;DHT22;9069;52.044;7.472;2022-12-11T01:31:18;4.30;99.30
17887;DHT22;9069;52.044;7.472;2022-12-11T01:33:46;4.30;99.30
17887;DHT22;9069;52.044;7.472;2022-12-11T01:36:18;4.30;99.30
17887;DHT22;9069;52.044;7.472;2022-12-11T01:38:47;4.20;99.20
17887;DHT22;9069;52.044;7.472;2022-12-11T01:41:15;4.20;99.30
17887;DHT22;9069;52.044;7.472;2022-12-11T01:43:59;4.20;99.30
17887;DHT22;9069;52.044;7.472;2022-12-11T01:46:27;4.20;99.20
17887;DHT22;9069;52.044;7.472;2022-12-11T01:48:54;4.20;99.30
17887;DHT22;9069;52.044;7.472;2022-12-11T01:51:23;4.20;99.30
17887;DHT22;9069;52.044;7.472;2022-12-11T01:53:55;4.20;99.40
17887;DHT22;9069;52.044;7.472;2022-12-11T01:56:24;4.20;99.30
17887;DHT22;9069;52.044;7.472;2022-12-11T01:58:56;4.20;99.40
17887;DHT22;9069;52.044;7.472;2022-12-11T02:01:36;4.20;99.30
17887;DHT22;9069;52.044;7.472;2022-12-11T02:04:06;4.20;99.30
17887;DHT22;9069;52.044;7.472;2022-12-11T02:06:42;4.20;99.50
17887;DHT22;9069;52.044;7.472;2022-12-11T02:09:13;4.20;99.40
17887;DHT22;9069;52.044;7.472;2022-12-11T02:12:13;4.20;99.50
17887;DHT22;9069;52.044;7.472;2022-12-11T02:14:43;4.20;99.40
17887;DHT22;9069;52.044;7.472;2022-12-11T02:17:20;4.20;99.60
17887;DHT22;9069;52.044;7.472;2022-12-11T02:20:02;4.20;99.50
17887;DHT22;9069;52.044;7.472;2022-12-11T02:28:17;4.20;99.60
17887;DHT22;9069;52.044;7.472;2022-12-11T02:30:51;4.20;99.50
17887;DHT22;9069;52.044;7.472;2022-12-11T02:33:27;4.20;99.60
17887;DHT22;9069;52.044;7.472;2022-12-11T02:35:57;4.20;99.60
17887;DHT22;9069;52.044;7.472;2022-12-11T02:38:31;4.20;99.60
17887;DHT22;9069;52.044;7.472;2022-12-11T02:41:00;4.20;99.50
17887;DHT22;9069;52.044;7.472;2022-12-11T02:43:29;4.20;99.60
17887;DHT22;9069;52.044;7.472;2022-12-11T02:45:58;4.20;99.60
17887;DHT22;9069;52.044;7.472;2022-12-11T02:48:26;4.20;99.60
17887;DHT22;9069;52.044;7.472;2022-12-11T02:50:55;4.20;99.70
17887;DHT22;9069;52.044;7.472;2022-12-11T02:53:25;4.20;99.70
17887;DHT22;9069;52.044;7.472;2022-12-11T02:55:57;4.20;99.60
17887;DHT22;9069;52.044;7.472;2022-12-11T02:58:31;4.20;99.60
17887;DHT22;9069;52.044;7.472;2022-12-11T03:00:58;4.20;99.60
17887;DHT22;9069;52.044;7.472;2022-12-11T03:03:28;4.20;99.70
17887;DHT22;9069;52.044;7.472;2022-12-11T03:05:55;4.20;99.60
17887;DHT22;9069;52.044;7.472;2022-12-11T03:08:21;4.20;99.70
17887;DHT22;9069;52.044;7.472;2022-12-11T03:10:48;4.20;99.90
17887;DHT22;9069;52.044;7.472;2022-12-11T03:13:18;4.30;99.70
17887;DHT22;9069;52.044;7.472;2022-12-11T03:18:35;4.30;99.60
17887;DHT22;9069;52.044;7.472;2022-12-11T03:21:10;4.30;99.70
17887;DHT22;9069;52.044;7.472;2022-12-11T03:23:46;4.30;99.70
17887;DHT22;9069;52.044;7.472;2022-12-11T03:26:14;4.30;99.70
17887;DHT22;9069;52.044;7.472;2022-12-11T03:28:50;4.30;99.80
17887;DHT22;9069;52.044;7.472;2022-12-11T03:31:40;4.30;99.60
17887;DHT22;9069;52.044;7.472;2022-12-11T03:34:17;4.30;99.60
17887;DHT22;9069;52.044;7.472;2022-12-11T03:36:47;4.30;99.70
17887;DHT22;9069;52.044;7.472;2022-12-11T03:39:20;4.30;99.80
17887;DHT22;9069;52.044;7.472;2022-12-11T03:41:49;4.40;99.80
17887;DHT22;9069;52.044;7.472;2022-12-11T03:44:18;4.30;99.80
17887;DHT22;9069;52.044;7.472;2022-12-11T03:46:47;4.40;99.80
17887;DHT22;9069;52.044;7.472;2022-12-11T03:49:37;4.40;99.80
17887;DHT22;9069;52.044;7.472;2022-12-11T03:52:06;4.40;99.60
17887;DHT22;9069;52.044;7.472;2022-12-11T03:54:34;4.40;99.80
17887;DHT22;9069;52.044;7.472;2022-12-11T03:57:02;4.40;99.80
17887;DHT22;9069;52.044;7.472;2022-12-11T03:59:29;4.40;99.80
17887;DHT22;9069;52.044;7.472;2022-12-11T04:01:56;4.40;99.80
17887;DHT22;9069;52.044;7.472;2022-12-11T04:04:23;4.40;99.80
17887;DHT22;9069;52.044;7.472;2022-12-11T04:06:50;4.40;99.80
17887;DHT22;9069;52.044;7.472;2022-12-11T04:09:17;4.40;99.80
17887;DHT22;9069;52.044;7.472;2022-12-11T04:11:43;4.40;99.80
17887;DHT22;9069;52.044;7.472;2022-12-11T04:14:12;4.40;99.80
17887;DHT22;9069;52.044;7.472;2022-12-11T04:16:59;4.40;99.70
17887;DHT22;9069;52.044;7.472;2022-12-11T04:19:26;4.50;99.80
17887;DHT22;9069;52.044;7.472;2022-12-11T04:22:14;4.50;99.80
17887;DHT22;9069;52.044;7.472;2022-12-11T04:25:00;4.50;99.80
17887;DHT22;9069;52.044;7.472;2022-12-11T04:27:27;4.50;99.80
17887;DHT22;9069;52.044;7.472;2022-12-11T04:30:15;4.50;99.80
17887;DHT22;9069;52.044;7.472;2022-12-11T04:32:42;4.50;99.80
17887;DHT22;9069;52.044;7.472;2022-12-11T04:35:10;4.50;99.80
17887;DHT22;9069;52.044;7.472;2022-12-11T04:37:37;4.50;99.80
17887;DHT22;9069;52.044;7.472;2022-12-11T04:40:06;4.50;99.80
17887;DHT22;9069;52.044;7.472;2022-12-11T04:42:33;4.50;99.70
17887;DHT22;9069;52.044;7.472;2022-12-11T04:44:59;4.50;99.80
17887;DHT22;9069;52.044;7.472;2022-12-11T04:47:26;4.50;99.80
17887;DHT22;9069;52.044;7.472;2022-12-11T04:49:53;4.50;99.80
17887;DHT22;9069;52.044;7.472;2022-12-11T04:52:20;4.50;99.80
17887;DHT22;9069;52.044;7.472;2022-12-11T04:54:47;4.50;99.80
17887;DHT22;9069;52.044;7.472;2022-12-11T04:57:13;4.50;99.80
17887;DHT22;9069;52.044;7.472;2022-12-11T04:59:40;4.50;99.90
17887;DHT22;9069;52.044;7.472;2022-12-11T05:02:07;4.50;99.80
17887;DHT22;9069;52.044;7.472;2022-12-11T05:04:34;4.50;99.80
17887;DHT22;9069;52.044;7.472;2022-12-11T05:07:01;4.50;99.90
17887;DHT22;9069;52.044;7.472;2022-12-11T05:09:27;4.50;99.90
17887;DHT22;9069;52.044;7.472;2022-12-11T05:11:55;4.50;99.90
17887;DHT22;9069;52.044;7.472;2022-12-11T05:14:22;4.50;99.80
17887;DHT22;9069;52.044;7.472;2022-12-11T05:16:48;4.50;99.70
17887;DHT22;9069;52.044;7.472;2022-12-11T05:19:15;4.50;99.70
17887;DHT22;9069;52.044;7.472;2022-12-11T05:21:42;4.50;99.70
17887;DHT22;9069;52.044;7.472;2022-12-11T05:24:08;4.50;99.70
17887;DHT22;9069;52.044;7.472;2022-12-11T05:26:35;4.50;99.80
17887;DHT22;9069;52.044;7.472;2022-12-11T05:29:02;4.40;99.70
17887;DHT22;9069;52.044;7.472;2022-12-11T05:31:29;4.50;99.80
17887;DHT22;9069;52.044;7.472;2022-12-11T05:33:55;4.50;99.80
17887;DHT22;9069;52.044;7.472;2022-12-11T05:36:23;4.50;99.80
17887;DHT22;9069;52.044;7.472;2022-12-11T05:38:51;4.50;99.80
17887;DHT22;9069;52.044;7.472;2022-12-11T05:41:20;4.50;99.80
17887;DHT22;9069;52.044;7.472;2022-12-11T05:43:47;4.50;99.80
17887;DHT22;9069;52.044;7.472;2022-12-11T05:46:25;4.50;99.80
17887;DHT22;9069;52.044;7.472;2022-12-11T05:48:58;4.50;99.70
17887;DHT22;9069;52.044;7.472;2022-12-11T05:51:26;4.50;99.70
17887;DHT22;9069;52.044;7.472;2022-12-11T05:53:54;4.50;99.80
17887;DHT22;9069;52.044;7.472;2022-12-11T05:56:24;4.50;99.80
17887;DHT22;9069;52.044;7.472;2022-12-11T05:58:53;4.50;99.80
17887;DHT22;9069;52.044;7.472;2022-12-11T06:01:26;4.50;99.80
17887;DHT22;9069;52.044;7.472;2022-12-11T06:03:54;4.50;99.70
17887;DHT22;9069;52.044;7.472;2022-12-11T06:06:21;4.50;99.80
17887;DHT22;9069;52.044;7.472;2022-12-11T06:08:51;4.50;99.80
17887;DHT22;9069;52.044;7.472;2022-12-11T06:11:19;4.50;99.70
17887;DHT22;9069;52.044;7.472;2022-12-11T06:13:50;4.50;99.80
17887;DHT22;9069;52.044;7.472;2022-12-11T06:16:17;4.50;99.80
17887;DHT22;9069;52.044;7.472;2022-12-11T06:18:44;4.50;99.80
17887;DHT22;9069;52.044;7.472;2022-12-11T06:21:16;4.50;99.80
17887;DHT22;9069;52.044;7.472;2022-12-11T06:23:44;4.50;99.70
17887;DHT22;9069;52.044;7.472;2022-12-11T06:26:12;4.50;99.70
17887;DHT22;9069;52.044;7.472;2022-12-11T06:28:39;4.50;99.70
17887;DHT22;9069;52.044;7.472;2022-12-11T06:31:06;4.50;99.70
17887;DHT22;9069;52.044;7.472;2022-12-11T06:33:33;4.50;99.70
17887;DHT22;9069;52.044;7.472;2022-12-11T06:36:01;4.50;99.80
17887;DHT22;9069;52.044;7.472;2022-12-11T06:38:28;4.50;99.80
17887;DHT22;9069;52.044;7.472;2022-12-11T06:40:56;4.60;99.80
17887;DHT22;9069;52.044;7.472;2022-12-11T06:43:23;4.70;99.80
17887;DHT22;9069;52.044;7.472;2022-12-11T06:45:50;4.60;99.80
17887;DHT22;9069;52.044;7.472;2022-12-11T06:48:17;4.60;99.90
17887;DHT22;9069;52.044;7.472;2022-12-11T06:50:44;4.60;99.70
17887;DHT22;9069;52.044;7.472;2022-12-11T06:53:12;4.60;99.70
17887;DHT22;9069;52.044;7.472;2022-12-11T06:55:40;4.50;99.70
17887;DHT22;9069;52.044;7.472;2022-12-11T06:58:08;4.60;99.70
17887;DHT22;9069;52.044;7.472;2022-12-11T07:00:36;4.60;99.70
17887;DHT22;9069;52.044;7.472;2022-12-11T07:03:03;4.60;99.70
17887;DHT22;9069;52.044;7.472;2022-12-11T07:05:31;4.60;99.70
17887;DHT22;9069;52.044;7.472;2022-12-11T07:07:58;4.60;99.70
17887;DHT22;9069;52.044;7.472;2022-12-11T07:10:25;4.60;99.70
17887;DHT22;9069;52.044;7.472;2022-12-11T07:12:52;4.60;99.80
17887;DHT22;9069;52.044;7.472;2022-12-11T07:15:20;4.50;99.70
17887;DHT22;9069;52.044;7.472;2022-12-11T07:17:46;4.50;99.80
17887;DHT22;9069;52.044;7.472;2022-12-11T07:20:13;4.60;99.80
17887;DHT22;9069;52.044;7.472;2022-12-11T07:22:40;4.60;99.80
17887;DHT22;9069;52.044;7.472;2022-12-11T07:25:12;4.60;99.80
17887;DHT22;9069;52.044;7.472;2022-12-11T07:27:39;4.60;99.70
17887;DHT22;9069;52.044;7.472;2022-12-11T07:30:07;4.50;99.70
17887;DHT22;9069;52.044;7.472;2022-12-11T07:32:34;4.50;99.70
17887;DHT22;9069;52.044;7.472;2022-12-11T07:35:01;4.50;99.70
17887;DHT22;9069;52.044;7.472;2022-12-11T07:37:28;4.50;99.70
17887;DHT22;9069;52.044;7.472;2022-12-11T07:39:54;4.50;99.70
17887;DHT22;9069;52.044;7.472;2022-12-11T07:42:21;4.50;99.80
17887;DHT22;9069;52.044;7.472;2022-12-11T07:44:48;4.50;99.80
17887;DHT22;9069;52.044;7.472;2022-12-11T07:47:15;4.50;99.80
17887;DHT22;9069;52.044;7.472;2022-12-11T07:49:41;4.50;99.80
17887;DHT22;9069;52.044;7.472;2022-12-11T07:52:08;4.50;99.70
17887;DHT22;9069;52.044;7.472;2022-12-11T07:54:35;4.50;99.80
17887;DHT22;9069;52.044;7.472;2022-12-11T07:57:02;4.50;99.80
17887;DHT22;9069;52.044;7.472;2022-12-11T07:59:29;4.50;99.90
17887;DHT22;9069;52.044;7.472;2022-12-11T08:01:55;4.50;99.90
17887;DHT22;9069;52.044;7.472;2022-12-11T08:04:22;4.50;99.90
17887;DHT22;9069;52.044;7.472;2022-12-11T08:06:50;4.50;99.90
17887;DHT22;9069;52.044;7.472;2022-12-11T08:09:16;4.50;99.90
17887;DHT22;9069;52.044;7.472;2022-12-11T08:11:48;4.50;99.90
17887;DHT22;9069;52.044;7.472;2022-12-11T08:14:16;4.50;99.90
17887;DHT22;9069;52.044;7.472;2022-12-11T08:16:43;4.50;99.90
17887;DHT22;9069;52.044;7.472;2022-12-11T08:19:11;4.50;99.90
17887;DHT22;9069;52.044;7.472;2022-12-11T08:21:38;4.50;99.90
17887;DHT22;9069;52.044;7.472;2022-12-11T08:24:05;4.50;99.90
17887;DHT22;9069;52.044;7.472;2022-12-11T08:26:32;4.50;99.90
17887;DHT22;9069;52.044;7.472;2022-12-11T08:29:00;4.50;99.90
17887;DHT22;9069;52.044;7.472;2022-12-11T08:31:27;4.50;99.90
17887;DHT22;9069;52.044;7.472;2022-12-11T08:33:55;4.50;99.90
17887;DHT22;9069;52.044;7.472;2022-12-11T08:36:22;4.50;99.90
17887;DHT22;9069;52.044;7.472;2022-12-11T08:38:50;4.50;99.90
17887;DHT22;9069;52.044;7.472;2022-12-11T08:41:19;4.50;99.90
17887;DHT22;9069;52.044;7.472;2022-12-11T08:43:48;4.50;99.90
17887;DHT22;9069;52.044;7.472;2022-12-11T08:46:18;4.60;99.90
17887;DHT22;9069;52.044;7.472;2022-12-11T08:48:45;4.50;99.90
17887;DHT22;9069;52.044;7.472;2022-12-11T08:51:14;4.60;99.90
17887;DHT22;9069;52.044;7.472;2022-12-11T08:53:42;4.60;99.90
17887;DHT22;9069;52.044;7.472;2022-12-11T08:56:13;4.60;99.90
17887;DHT22;9069;52.044;7.472;2022-12-11T08:58:41;4.60;99.90
17887;DHT22;9069;52.044;7.472;2022-12-11T09:01:11;4.60;99.90
17887;DHT22;9069;52.044;7.472;2022-12-11T09:03:38;4.60;99.90
17887;DHT22;9069;52.044;7.472;2022-12-11T09:06:07;4.60;99.90
17887;DHT22;9069;52.044;7.472;2022-12-11T09:08:34;4.60;99.90
17887;DHT22;9069;52.044;7.472;2022-12-11T09:11:09;4.60;99.90
17887;DHT22;9069;52.044;7.472;2022-12-11T09:13:37;4.60;99.90
17887;DHT22;9069;52.044;7.472;2022-12-11T09:16:11;4.60;99.90
17887;DHT22;9069;52.044;7.472;2022-12-11T09:18:38;4.60;99.90
17887;DHT22;9069;52.044;7.472;2022-12-11T09:21:10;4.60;99.90
17887;DHT22;9069;52.044;7.472;2022-12-11T09:23:39;4.60;99.90
17887;DHT22;9069;52.044;7.472;2022-12-11T09:26:08;4.60;99.90
17887;DHT22;9069;52.044;7.472;2022-12-11T09:28:39;4.60;99.90
17887;DHT22;9069;52.044;7.472;2022-12-11T09:31:17;4.60;99.90
17887;DHT22;9069;52.044;7.472;2022-12-11T09:33:45;4.60;99.90
17887;DHT22;9069;52.044;7.472;2022-12-11T09:36:12;4.60;99.90
17887;DHT22;9069;52.044;7.472;2022-12-11T09:38:39;4.70;99.90
17887;DHT22;9069;52.044;7.472;2022-12-11T09:46:34;4.70;99.90
17887;DHT22;9069;52.044;7.472;2022-12-11T09:49:04;4.70;99.90
17887;DHT22;9069;52.044;7.472;2022-12-11T09:51:39;4.70;99.90
17887;DHT22;9069;52.044;7.472;2022-12-11T09:54:10;4.70;99.90
17887;DHT22;9069;52.044;7.472;2022-12-11T09:56:43;4.70;99.90
17887;DHT22;9069;52.044;7.472;2022-12-11T09:59:40;4.70;99.90
17887;DHT22;9069;52.044;7.472;2022-12-11T10:05:17;4.80;99.90
17887;DHT22;9069;52.044;7.472;2022-12-11T10:07:59;4.80;99.90
17887;DHT22;9069;52.044;7.472;2022-12-11T10:10:43;4.80;99.90
17887;DHT22;9069;52.044;7.472;2022-12-11T10:15:53;4.80;99.90
17887;DHT22;9069;52.044;7.472;2022-12-11T10:18:24;4.80;99.90
17887;DHT22;9069;52.044;7.472;2022-12-11T10:20:53;4.80;99.90
17887;DHT22;9069;52.044;7.472;2022-12-11T10:23:23;4.80;99.90
17887;DHT22;9069;52.044;7.472;2022-12-11T10:25:57;4.80;99.90
17887;DHT22;9069;52.044;7.472;2022-12-11T10:28:28;4.80;99.90
17887;DHT22;9069;52.044;7.472;2022-12-11T10:31:01;4.90;99.90
17887;DHT22;9069;52.044;7.472;2022-12-11T10:33:40;4.90;99.90
17887;DHT22;9069;52.044;7.472;2022-12-11T10:36:15;4.90;99.90
17887;DHT22;9069;52.044;7.472;2022-12-11T10:38:44;4.90;99.90
17887;DHT22;9069;52.044;7.472;2022-12-11T10:41:36;4.90;99.90
17887;DHT22;9069;52.044;7.472;2022-12-11T10:44:17;4.90;99.90
17887;DHT22;9069;52.044;7.472;2022-12-11T10:46:46;5.00;99.90
17887;DHT22;9069;52.044;7.472;2022-12-11T10:49:27;5.00;99.90
17887;DHT22;9069;52.044;7.472;2022-12-11T10:51:56;5.00;99.90
17887;DHT22;9069;52.044;7.472;2022-12-11T10:54:41;5.00;99.90
17887;DHT22;9069;52.044;7.472;2022-12-11T10:57:10;5.00;99.90
17887;DHT22;9069;52.044;7.472;2022-12-11T10:59:44;5.00;99.90
17887;DHT22;9069;52.044;7.472;2022-12-11T11:02:34;5.00;99.90
17887;DHT22;9069;52.044;7.472;2022-12-11T11:05:12;5.00;99.90
17887;DHT22;9069;52.044;7.472;2022-12-11T11:07:40;5.00;99.90
17887;DHT22;9069;52.044;7.472;2022-12-11T11:12:39;5.00;99.90
17887;DHT22;9069;52.044;7.472;2022-12-11T11:15:18;5.10;99.90
17887;DHT22;9069;52.044;7.472;2022-12-11T11:17:54;5.00;99.90
17887;DHT22;9069;52.044;7.472;2022-12-11T11:20:28;5.10;99.90
17887;DHT22;9069;52.044;7.472;2022-12-11T11:22:57;5.10;99.90
17887;DHT22;9069;52.044;7.472;2022-12-11T11:28:23;5.10;99.90
17887;DHT22;9069;52.044;7.472;2022-12-11T11:31:12;5.10;99.90
17887;DHT22;9069;52.044;7.472;2022-12-11T11:33:55;5.10;99.90
17887;DHT22;9069;52.044;7.472;2022-12-11T11:36:26;5.10;99.90
17887;DHT22;9069;52.044;7.472;2022-12-11T11:44:34;5.10;99.90
17887;DHT22;9069;52.044;7.472;2022-12-11T11:47:13;5.10;99.90
17887;DHT22;9069;52.044;7.472;2022-12-11T11:49:48;5.10;99.90
17887;DHT22;9069;52.044;7.472;2022-12-11T11:57:47;5.10;99.90
17887;DHT22;9069;52.044;7.472;2022-12-11T12:00:21;5.20;99.90
17887;DHT22;9069;52.044;7.472;2022-12-11T12:02:52;5.20;99.90
17887;DHT22;9069;52.044;7.472;2022-12-11T12:05:27;5.20;99.90
17887;DHT22;9069;52.044;7.472;2022-12-11T12:08:08;5.20;99.90
17887;DHT22;9069;52.044;7.472;2022-12-11T12:10:42;5.20;99.90
17887;DHT22;9069;52.044;7.472;2022-12-11T12:13:27;5.20;99.90
17887;DHT22;9069;52.044;7.472;2022-12-11T12:16:39;5.20;99.90
17887;DHT22;9069;52.044;7.472;2022-12-11T12:22:18;5.30;99.90
17887;DHT22;9069;52.044;7.472;2022-12-11T12:36:38;5.30;99.90
17887;DHT22;9069;52.044;7.472;2022-12-11T12:39:17;5.30;99.90
17887;DHT22;9069;52.044;7.472;2022-12-11T12:41:57;5.30;99.90
17887;DHT22;9069;52.044;7.472;2022-12-11T12:44:57;5.30;99.90
17887;DHT22;9069;52.044;7.472;2022-12-11T12:47:27;5.30;99.90
17887;DHT22;9069;52.044;7.472;2022-12-11T12:49:58;5.30;99.90
17887;DHT22;9069;52.044;7.472;2022-12-11T12:52:31;5.30;99.90
17887;DHT22;9069;52.044;7.472;2022-12-11T12:55:02;5.30;99.90
17887;DHT22;9069;52.044;7.472;2022-12-11T12:57:50;5.30;99.90
17887;DHT22;9069;52.044;7.472;2022-12-11T13:00:39;5.30;99.90
17887;DHT22;9069;52.044;7.472;2022-12-11T13:03:22;5.30;99.70
17887;DHT22;9069;52.044;7.472;2022-12-11T13:05:57;5.30;99.70
17887;DHT22;9069;52.044;7.472;2022-12-11T13:08:29;5.30;99.70
17887;DHT22;9069;52.044;7.472;2022-12-11T13:11:02;5.30;99.70
17887;DHT22;9069;52.044;7.472;2022-12-11T13:18:45;5.30;99.40
17887;DHT22;9069;52.044;7.472;2022-12-11T13:21:35;5.30;99.60
17887;DHT22;9069;52.044;7.472;2022-12-11T13:26:48;5.30;99.20
17887;DHT22;9069;52.044;7.472;2022-12-11T13:32:10;5.30;99.20
17887;DHT22;9069;52.044;7.472;2022-12-11T13:34:58;5.30;99.50
17887;DHT22;9069;52.044;7.472;2022-12-11T13:37:43;5.30;99.30
17887;DHT22;9069;52.044;7.472;2022-12-11T13:40:25;5.30;99.40
17887;DHT22;9069;52.044;7.472;2022-12-11T13:42:55;5.30;99.20
17887;DHT22;9069;52.044;7.472;2022-12-11T13:47:55;5.30;99.40
17887;DHT22;9069;52.044;7.472;2022-12-11T13:50:33;5.30;99.50
17887;DHT22;9069;52.044;7.472;2022-12-11T13:53:02;5.30;99.30
17887;DHT22;9069;52.044;7.472;2022-12-11T13:55:32;5.30;99.50
17887;DHT22;9069;52.044;7.472;2022-12-11T13:57:59;5.30;99.50
17887;DHT22;9069;52.044;7.472;2022-12-11T14:00:29;5.30;99.50
17887;DHT22;9069;52.044;7.472;2022-12-11T14:03:01;5.30;99.40
17887;DHT22;9069;52.044;7.472;2022-12-11T14:05:30;5.30;99.30
17887;DHT22;9069;52.044;7.472;2022-12-11T14:07:58;5.30;99.40
17887;DHT22;9069;52.044;7.472;2022-12-11T14:10:29;5.30;99.30
17887;DHT22;9069;52.044;7.472;2022-12-11T14:13:00;5.30;99.30
17887;DHT22;9069;52.044;7.472;2022-12-11T14:15:29;5.30;99.40
17887;DHT22;9069;52.044;7.472;2022-12-11T14:17:57;5.30;99.30
17887;DHT22;9069;52.044;7.472;2022-12-11T14:20:27;5.40;99.30
17887;DHT22;9069;52.044;7.472;2022-12-11T14:23:19;5.30;99.20
17887;DHT22;9069;52.044;7.472;2022-12-11T14:26:01;5.30;98.80
17887;DHT22;9069;52.044;7.472;2022-12-11T14:28:36;5.30;99.00
17887;DHT22;9069;52.044;7.472;2022-12-11T14:31:04;5.30;99.10
17887;DHT22;9069;52.044;7.472;2022-12-11T14:33:37;5.30;99.20
17887;DHT22;9069;52.044;7.472;2022-12-11T14:36:06;5.30;99.00
17887;DHT22;9069;52.044;7.472;2022-12-11T14:38:37;5.30;99.10
17887;DHT22;9069;52.044;7.472;2022-12-11T14:41:26;5.30;98.90
17887;DHT22;9069;52.044;7.472;2022-12-11T14:43:57;5.30;98.90
17887;DHT22;9069;52.044;7.472;2022-12-11T14:46:39;5.30;98.90
17887;DHT22;9069;52.044;7.472;2022-12-11T14:49:23;5.30;98.60
17887;DHT22;9069;52.044;7.472;2022-12-11T14:51:52;5.30;98.80
17887;DHT22;9069;52.044;7.472;2022-12-11T14:54:42;5.30;99.00
17887;DHT22;9069;52.044;7.472;2022-12-11T14:57:22;5.30;98.50
17887;DHT22;9069;52.044;7.472;2022-12-11T14:59:51;5.30;98.60
17887;DHT22;9069;52.044;7.472;2022-12-11T15:05:13;5.30;98.60
17887;DHT22;9069;52.044;7.472;2022-12-11T15:07:41;5.30;98.40
17887;DHT22;9069;52.044;7.472;2022-12-11T15:10:22;5.30;98.60
17887;DHT22;9069;52.044;7.472;2022-12-11T15:12:49;5.30;98.30
17887;DHT22;9069;52.044;7.472;2022-12-11T15:15:16;5.30;98.60
17887;DHT22;9069;52.044;7.472;2022-12-11T15:17:44;5.30;98.60
17887;DHT22;9069;52.044;7.472;2022-12-11T15:20:28;5.30;98.50
17887;DHT22;9069;52.044;7.472;2022-12-11T15:22:57;5.30;98.30
17887;DHT22;9069;52.044;7.472;2022-12-11T15:25:28;5.30;98.60
17887;DHT22;9069;52.044;7.472;2022-12-11T15:27:57;5.30;98.60
17887;DHT22;9069;52.044;7.472;2022-12-11T15:30:27;5.30;98.60
17887;DHT22;9069;52.044;7.472;2022-12-11T15:33:19;5.30;98.60
17887;DHT22;9069;52.044;7.472;2022-12-11T15:35:59;5.30;98.50
17887;DHT22;9069;52.044;7.472;2022-12-11T15:40:55;5.30;98.60
17887;DHT22;9069;52.044;7.472;2022-12-11T15:43:23;5.30;98.70
17887;DHT22;9069;52.044;7.472;2022-12-11T15:45:50;5.20;98.70
17887;DHT22;9069;52.044;7.472;2022-12-11T15:48:16;5.20;98.80
17887;DHT22;9069;52.044;7.472;2022-12-11T15:50:43;5.20;98.70
17887;DHT22;9069;52.044;7.472;2022-12-11T15:53:10;5.30;98.80
17887;DHT22;9069;52.044;7.472;2022-12-11T15:55:37;5.20;98.80
17887;DHT22;9069;52.044;7.472;2022-12-11T15:58:06;5.20;98.70
17887;DHT22;9069;52.044;7.472;2022-12-11T16:00:34;5.20;98.60
17887;DHT22;9069;52.044;7.472;2022-12-11T16:03:01;5.20;98.70
17887;DHT22;9069;52.044;7.472;2022-12-11T16:05:28;5.20;98.70
17887;DHT22;9069;52.044;7.472;2022-12-11T16:07:55;5.20;98.70
17887;DHT22;9069;52.044;7.472;2022-12-11T16:10:25;5.20;98.70
17887;DHT22;9069;52.044;7.472;2022-12-11T16:12:52;5.20;98.70
17887;DHT22;9069;52.044;7.472;2022-12-11T16:15:22;5.20;98.70
17887;DHT22;9069;52.044;7.472;2022-12-11T16:18:01;5.20;98.70
17887;DHT22;9069;52.044;7.472;2022-12-11T16:20:29;5.20;98.50
17887;DHT22;9069;52.044;7.472;2022-12-11T16:22:57;5.20;98.70
17887;DHT22;9069;52.044;7.472;2022-12-11T16:25:25;5.20;98.70
17887;DHT22;9069;52.044;7.472;2022-12-11T16:27:56;5.20;98.70
17887;DHT22;9069;52.044;7.472;2022-12-11T16:30:24;5.20;98.60
17887;DHT22;9069;52.044;7.472;2022-12-11T16:32:51;5.20;98.70
17887;DHT22;9069;52.044;7.472;2022-12-11T16:35:19;5.20;98.60
17887;DHT22;9069;52.044;7.472;2022-12-11T16:37:50;5.20;98.60
17887;DHT22;9069;52.044;7.472;2022-12-11T16:40:18;5.20;98.40
17887;DHT22;9069;52.044;7.472;2022-12-11T16:42:46;5.20;98.50
17887;DHT22;9069;52.044;7.472;2022-12-11T16:45:18;5.20;98.40
17887;DHT22;9069;52.044;7.472;2022-12-11T16:47:45;5.20;98.20
17887;DHT22;9069;52.044;7.472;2022-12-11T16:50:13;5.20;98.40
17887;DHT22;9069;52.044;7.472;2022-12-11T16:52:41;5.20;98.40
17887;DHT22;9069;52.044;7.472;2022-12-11T16:55:09;5.20;98.40
17887;DHT22;9069;52.044;7.472;2022-12-11T16:57:37;5.20;98.30
17887;DHT22;9069;52.044;7.472;2022-12-11T17:00:05;5.20;98.30
17887;DHT22;9069;52.044;7.472;2022-12-11T17:02:32;5.10;98.20
17887;DHT22;9069;52.044;7.472;2022-12-11T17:04:58;5.10;98.20
17887;DHT22;9069;52.044;7.472;2022-12-11T17:07:25;5.10;98.20
17887;DHT22;9069;52.044;7.472;2022-12-11T17:09:52;5.10;98.20
17887;DHT22;9069;52.044;7.472;2022-12-11T17:12:19;5.10;98.10
17887;DHT22;9069;52.044;7.472;2022-12-11T17:14:51;5.10;98.20
17887;DHT22;9069;52.044;7.472;2022-12-11T17:17:17;5.10;98.20
17887;DHT22;9069;52.044;7.472;2022-12-11T17:19:44;5.00;98.20
17887;DHT22;9069;52.044;7.472;2022-12-11T17:22:11;5.00;98.20
17887;DHT22;9069;52.044;7.472;2022-12-11T17:24:37;5.00;98.30
17887;DHT22;9069;52.044;7.472;2022-12-11T17:27:04;5.00;98.30
17887;DHT22;9069;52.044;7.472;2022-12-11T17:29:31;5.00;98.40
17887;DHT22;9069;52.044;7.472;2022-12-11T17:31:57;5.00;98.40
17887;DHT22;9069;52.044;7.472;2022-12-11T17:34:24;5.00;98.50